Time;durP1;ratioP1;P1;durP2;ratioP2;P2;SDS_P1;SDS_P2;PMS_P1;PMS_P2;Temp;Humidity;BMP_temperature;BMP_pressure;BME280_temperature;BME280_humidity;BME280_pressure;Samples;Min_cycle;Max_cycle;Signal;HPM_P1;HPM_P2
2022/07/10 00:00:46;;;;;;;5.90;1.70;;;;;;;14.07;64.77;102689.66;4754215;30;20071;-91
2022/07/10 00:03:12;;;;;;;7.80;2.15;;;;;;;14.08;64.87;102694.13;4740865;30;20502;-92
2022/07/10 00:05:38;;;;;;;8.20;2.00;;;;;;;14.08;65.64;102708.31;4739886;30;20038;-92
2022/07/10 00:08:03;;;;;;;11.02;2.72;;;;;;;13.90;66.16;102685.34;4725225;30;20043;-94
2022/07/10 00:10:29;;;;;;;8.93;2.40;;;;;;;13.94;65.34;102689.75;4739459;30;20563;-91
2022/07/10 00:12:55;;;;;;;5.47;2.28;;;;;;;13.90;65.45;102696.00;4739316;30;20048;-92
2022/07/10 00:15:21;;;;;;;4.85;2.20;;;;;;;13.89;65.25;102698.66;4738944;30;20032;-92
2022/07/10 00:17:49;;;;;;;8.75;2.65;;;;;;;13.80;64.83;102680.97;4753674;30;20081;-92
2022/07/10 00:20:15;;;;;;;9.43;2.67;;;;;;;13.85;65.09;102688.94;4736213;30;20060;-93
2022/07/10 00:22:41;;;;;;;8.88;2.47;;;;;;;13.77;65.52;102673.00;4731863;30;20036;-93
2022/07/10 00:25:10;;;;;;;8.57;2.78;;;;;;;13.70;65.91;102676.63;4738818;30;20032;-92
2022/07/10 00:27:36;;;;;;;7.38;2.65;;;;;;;13.80;66.07;102694.31;4738830;30;20469;-93
2022/07/10 00:30:02;;;;;;;6.18;2.22;;;;;;;13.71;66.31;102681.91;4753532;30;20075;-92
2022/07/10 00:32:28;;;;;;;6.60;2.60;;;;;;;13.73;67.09;102688.13;4729352;30;20111;-94
2022/07/10 00:34:54;;;;;;;9.18;2.70;;;;;;;13.69;66.95;102682.81;4739007;30;20500;-94
2022/07/10 00:37:21;;;;;;;9.10;2.60;;;;;;;13.69;66.58;102677.50;4738768;30;20393;-93
2022/07/10 00:39:47;;;;;;;12.32;2.80;;;;;;;13.76;67.06;102684.56;4725333;30;20505;-92
2022/07/10 00:42:16;;;;;;;7.35;2.53;;;;;;;13.79;68.10;102688.97;4742886;30;20044;-92
2022/07/10 00:44:42;;;;;;;10.98;2.65;;;;;;;13.73;66.66;102672.13;4754439;30;20545;-92
2022/07/10 00:47:09;;;;;;;6.88;2.90;;;;;;;13.72;66.94;102667.72;4739940;30;20032;-93
2022/07/10 00:49:39;;;;;;;10.30;3.58;;;;;;;13.79;67.70;102675.66;4741318;30;20458;-93
2022/07/10 00:52:15;;;;;;;6.40;2.38;;;;;;;13.81;66.88;102679.19;4736700;30;20036;-93
2022/07/10 00:54:52;;;;;;;9.55;2.55;;;;;;;13.67;67.31;102660.63;4750587;30;20055;-93
2022/07/10 00:57:18;;;;;;;8.13;2.75;;;;;;;13.69;67.60;102673.03;4751604;30;20036;-92
2022/07/10 00:59:45;;;;;;;10.68;3.15;;;;;;;13.61;67.84;102658.03;4738605;30;20574;-92
2022/07/10 01:02:12;;;;;;;8.43;2.55;;;;;;;13.64;67.83;102653.53;4738475;30;20490;-93
2022/07/10 01:04:38;;;;;;;8.75;2.72;;;;;;;13.68;68.08;102659.75;4741296;30;20042;-93
2022/07/10 01:07:04;;;;;;;6.68;2.38;;;;;;;13.60;68.00;102649.16;4753022;30;20402;-93
2022/07/10 01:09:31;;;;;;;8.63;2.55;;;;;;;13.47;68.00;102637.66;4740085;30;20198;-92
2022/07/10 01:12:09;;;;;;;4.72;2.35;;;;;;;13.54;68.19;102659.81;4739923;30;20122;-92
2022/07/10 01:14:37;;;;;;;8.98;2.38;;;;;;;13.49;68.25;102643.00;4739621;30;20044;-93
2022/07/10 01:17:17;;;;;;;7.38;2.10;;;;;;;13.41;68.71;102634.16;4739740;30;20036;-92
2022/07/10 01:19:42;;;;;;;6.70;2.50;;;;;;;13.37;69.05;102635.94;4754375;30;20080;-93
2022/07/10 01:22:08;;;;;;;8.43;2.30;;;;;;;13.26;68.79;102624.44;4736729;30;20290;-93
2022/07/10 01:24:35;;;;;;;8.07;2.47;;;;;;;13.18;68.83;102632.47;4733002;30;20485;-92
2022/07/10 01:27:04;;;;;;;8.57;2.58;;;;;;;13.11;69.24;102644.03;4762400;30;20040;-92
2022/07/10 01:29:35;;;;;;;10.43;2.58;;;;;;;12.97;71.83;102638.72;4735314;30;20095;-92
2022/07/10 01:32:01;;;;;;;8.07;2.30;;;;;;;12.91;70.91;102646.75;4726399;30;20047;-93
2022/07/10 01:34:27;;;;;;;6.90;2.70;;;;;;;12.96;70.91;102658.25;4745021;30;20506;-93
2022/07/10 01:36:55;;;;;;;7.78;2.65;;;;;;;12.88;71.19;102634.34;4738977;30;20020;-91
2022/07/10 01:39:21;;;;;;;8.82;2.63;;;;;;;13.00;70.76;102652.00;4738415;30;20040;-94
2022/07/10 01:41:47;;;;;;;8.23;2.25;;;;;;;12.88;70.92;102630.78;4753400;30;20047;-92
2022/07/10 01:44:15;;;;;;;7.57;2.42;;;;;;;12.91;70.61;102644.09;4738821;30;20062;-93
2022/07/10 01:46:46;;;;;;;6.18;2.50;;;;;;;12.96;71.97;102642.28;4739052;30;20032;-93
2022/07/10 01:49:29;;;;;;;7.00;2.55;;;;;;;12.98;70.66;102653.81;4738398;30;20139;-93
2022/07/10 01:51:55;;;;;;;8.77;2.67;;;;;;;12.83;72.42;102635.22;4738196;30;20040;-92
2022/07/10 01:54:20;;;;;;;9.00;2.55;;;;;;;12.82;72.36;102633.47;4738230;30;20031;-91
2022/07/10 01:56:46;;;;;;;6.15;2.10;;;;;;;12.78;71.35;102643.19;4738597;30;20028;-93
2022/07/10 01:59:12;;;;;;;9.50;3.08;;;;;;;12.68;71.99;102625.50;4735694;30;20047;-94
2022/07/10 02:01:37;;;;;;;5.03;2.28;;;;;;;12.71;72.12;102628.19;4723343;30;20043;-92
2022/07/10 02:06:50;;;;;;;6.20;2.25;;;;;;;12.75;73.35;102637.91;4741598;30;20135;-93
2022/07/10 02:09:16;;;;;;;9.48;2.85;;;;;;;12.74;72.71;102635.28;4737184;30;20123;-92
2022/07/10 02:11:41;;;;;;;10.98;2.42;;;;;;;12.70;72.75;102637.91;4738260;30;20049;-92
2022/07/10 02:14:25;;;;;;;8.70;2.55;;;;;;;12.70;71.64;102629.06;4734357;30;20059;-92
2022/07/10 02:16:51;;;;;;;6.18;2.08;;;;;;;12.68;72.72;102642.38;4727687;30;20032;-93
2022/07/10 02:19:16;;;;;;;9.13;2.47;;;;;;;12.55;72.80;102623.78;4737284;30;20363;-92
2022/07/10 02:21:42;;;;;;;10.13;2.60;;;;;;;12.52;72.76;102624.66;4732380;30;20451;-91
2022/07/10 02:24:10;;;;;;;8.85;2.67;;;;;;;12.53;73.45;102622.88;4746905;30;20401;-93
2022/07/10 02:26:36;;;;;;;9.05;2.70;;;;;;;12.62;72.79;102644.13;4748572;30;20115;-92
2022/07/10 02:29:01;;;;;;;6.70;2.67;;;;;;;12.63;72.94;102640.59;4737297;30;20032;-94
2022/07/10 02:31:27;;;;;;;9.68;2.20;;;;;;;12.50;73.21;102628.22;4736820;30;20123;-93
2022/07/10 02:33:55;;;;;;;9.60;2.63;;;;;;;12.50;74.46;102628.22;4746715;30;20131;-93
2022/07/10 02:36:20;;;;;;;3.47;2.10;;;;;;;12.51;73.81;102628.19;4737355;30;20039;-94
2022/07/10 02:38:46;;;;;;;11.38;2.72;;;;;;;12.43;74.22;102622.00;4737542;30;20039;-94
2022/07/10 02:41:12;;;;;;;8.18;2.90;;;;;;;12.39;74.57;102615.81;4737098;30;20036;-94
2022/07/10 02:43:55;;;;;;;10.65;2.50;;;;;;;12.43;74.90;102622.88;4736769;30;20099;-92
2022/07/10 02:46:21;;;;;;;13.05;2.78;;;;;;;12.46;75.25;102624.66;4737123;30;20032;-94
2022/07/10 02:48:46;;;;;;;6.07;2.20;;;;;;;12.45;74.39;102605.19;4736807;30;20486;-94
2022/07/10 02:51:12;;;;;;;7.32;2.78;;;;;;;12.60;75.02;102624.66;4736828;30;20036;-93
2022/07/10 02:53:40;;;;;;;6.35;2.70;;;;;;;12.61;75.54;102627.31;4736831;30;20477;-92
2022/07/10 02:56:06;;;;;;;7.68;2.55;;;;;;;12.48;75.62;102601.63;4737655;30;20127;-92
2022/07/10 02:58:33;;;;;;;6.32;2.83;;;;;;;12.52;74.97;102599.88;4739436;30;20082;-93
2022/07/10 03:01:01;;;;;;;9.05;2.63;;;;;;;12.57;75.98;102606.94;4729889;30;20040;-92
2022/07/10 03:03:26;;;;;;;9.95;2.38;;;;;;;12.55;75.21;102608.72;4743612;30;20052;-93
2022/07/10 03:05:52;;;;;;;8.13;2.60;;;;;;;12.44;75.44;102591.91;4737425;30;20486;-92
2022/07/10 03:08:18;;;;;;;11.13;2.83;;;;;;;12.52;75.42;102600.75;4742334;30;20051;-92
2022/07/10 03:10:43;;;;;;;9.23;2.53;;;;;;;12.47;75.79;102597.22;4735591;30;20501;-93
2022/07/10 03:13:09;;;;;;;8.25;2.70;;;;;;;12.53;75.90;102614.91;4744497;30;20032;-92
2022/07/10 03:15:35;;;;;;;7.47;2.70;;;;;;;12.54;75.24;102619.34;4745713;30;20481;-92
2022/07/10 03:18:03;;;;;;;7.97;2.60;;;;;;;12.38;76.90;102611.38;4743698;30;20032;-92
2022/07/10 03:20:29;;;;;;;8.15;2.50;;;;;;;12.44;76.46;102624.69;4743184;30;20236;-92
2022/07/10 03:22:55;;;;;;;12.38;2.88;;;;;;;12.40;75.68;102616.72;4744581;30;20031;-92
2022/07/10 03:25:31;;;;;;;6.38;2.60;;;;;;;12.28;77.00;102609.63;4744629;30;20067;-94
2022/07/10 03:27:56;;;;;;;9.85;2.72;;;;;;;12.27;77.41;102607.88;4722237;30;20045;-93
2022/07/10 03:30:24;;;;;;;5.68;2.33;;;;;;;12.27;76.52;102599.91;4751641;30;20044;-93
2022/07/10 03:32:50;;;;;;;9.20;2.42;;;;;;;12.29;76.22;102608.75;4725008;30;20062;-94
2022/07/10 03:35:16;;;;;;;8.27;3.10;;;;;;;12.34;76.21;102614.03;4739452;30;20032;-93
2022/07/10 03:37:42;;;;;;;8.45;2.88;;;;;;;12.34;76.54;102606.97;4739425;30;20031;-92
2022/07/10 03:40:08;;;;;;;7.38;2.35;;;;;;;12.27;76.02;102598.13;4739254;30;20039;-93
2022/07/10 03:42:34;;;;;;;8.60;2.75;;;;;;;12.36;76.08;102610.50;4739370;30;20036;-94
2022/07/10 03:45:00;;;;;;;7.40;2.97;;;;;;;12.35;76.15;102608.75;4739000;30;20044;-93
2022/07/10 03:47:26;;;;;;;10.52;2.63;;;;;;;12.26;76.73;102595.44;4739267;30;20031;-92
2022/07/10 03:49:51;;;;;;;7.25;2.58;;;;;;;12.35;76.39;102611.41;4739118;30;20135;-93
2022/07/10 03:52:17;;;;;;;10.85;2.58;;;;;;;12.25;77.71;102597.22;4739390;30;20059;-93
2022/07/10 03:54:43;;;;;;;4.90;2.50;;;;;;;12.30;77.23;102602.53;4753957;30;20123;-92
2022/07/10 03:59:55;;;;;;;7.82;2.50;;;;;;;12.24;77.75;102597.25;4745512;30;20558;-93
2022/07/10 04:02:21;;;;;;;8.27;2.35;;;;;;;12.24;77.60;102591.94;4725273;30;20039;-93
2022/07/10 04:04:46;;;;;;;5.63;2.40;;;;;;;12.35;77.72;102599.88;4739473;30;20051;-92
2022/07/10 04:07:12;;;;;;;7.85;2.53;;;;;;;12.32;76.99;102600.78;4739251;30;20115;-94
2022/07/10 04:09:38;;;;;;;8.07;2.50;;;;;;;12.37;77.45;102606.09;4736209;30;20035;-94
2022/07/10 04:12:06;;;;;;;9.75;2.90;;;;;;;12.40;77.42;102611.41;4736764;30;20040;-92
2022/07/10 04:14:32;;;;;;;9.75;2.60;;;;;;;12.44;78.09;102607.84;4737187;30;20439;-94
2022/07/10 04:16:57;;;;;;;4.35;2.35;;;;;;;12.44;78.74;102573.31;4740359;30;20039;-93
2022/07/10 04:19:23;;;;;;;9.25;2.20;;;;;;;12.54;77.40;102593.66;4737798;30;20040;-93
2022/07/10 04:21:49;;;;;;;5.72;2.47;;;;;;;12.54;77.29;102591.00;4735928;30;20032;-93
2022/07/10 04:24:14;;;;;;;8.07;2.60;;;;;;;12.57;77.79;102604.28;4734246;30;20039;-91
2022/07/10 04:27:00;;;;;;;8.30;2.63;;;;;;;12.59;77.45;102601.63;4732780;30;20032;-95
2022/07/10 04:29:25;;;;;;;7.03;2.50;;;;;;;12.52;77.68;102583.94;4742182;30;20067;-92
2022/07/10 04:31:54;;;;;;;7.72;2.53;;;;;;;12.47;78.89;102592.78;4746059;30;20456;-93
2022/07/10 04:34:20;;;;;;;12.23;2.72;;;;;;;12.47;77.90;102592.78;4742736;30;20396;-92
2022/07/10 04:36:45;;;;;;;7.07;2.50;;;;;;;12.53;78.20;102589.22;4742342;30;20023;-92
2022/07/10 04:39:11;;;;;;;10.88;2.90;;;;;;;12.56;78.76;102589.25;4742514;30;20040;-94
2022/07/10 04:41:39;;;;;;;6.88;2.47;;;;;;;12.59;78.53;102591.00;4742389;30;20046;-94
2022/07/10 04:44:05;;;;;;;7.40;2.67;;;;;;;12.68;78.17;102604.25;4742503;30;20024;-93
2022/07/10 04:46:33;;;;;;;10.15;2.25;;;;;;;12.72;77.69;102605.13;4742235;30;20075;-94
2022/07/10 04:48:59;;;;;;;6.88;2.60;;;;;;;12.81;78.23;102618.38;4742272;30;20215;-93
2022/07/10 04:51:25;;;;;;;13.05;2.85;;;;;;;12.79;78.31;102601.56;4742200;30;20559;-94
2022/07/10 04:53:54;;;;;;;7.28;2.58;;;;;;;12.86;77.82;102606.00;4742158;30;20127;-93
2022/07/10 04:56:19;;;;;;;6.47;2.13;;;;;;;12.93;78.00;102593.53;4741992;30;20035;-93
2022/07/10 04:58:45;;;;;;;4.75;2.10;;;;;;;12.87;78.14;102570.53;4742288;30;20039;-93
2022/07/10 05:01:19;;;;;;;7.07;2.70;;;;;;;12.99;78.08;102601.50;4742619;30;20100;-93
2022/07/10 05:03:47;;;;;;;9.70;2.55;;;;;;;12.94;78.57;102592.66;4742974;30;20109;-92
2022/07/10 05:06:15;;;;;;;12.05;2.45;;;;;;;13.12;78.14;102609.41;4743377;30;20389;-93
2022/07/10 05:08:41;;;;;;;6.82;2.30;;;;;;;13.20;78.03;102619.13;4742728;30;20044;-93
2022/07/10 05:11:16;;;;;;;6.82;2.38;;;;;;;13.23;78.15;102612.03;4741777;30;20429;-92
2022/07/10 05:13:45;;;;;;;6.95;2.00;;;;;;;13.23;77.23;102604.06;4757080;30;20076;-93
2022/07/10 05:16:12;;;;;;;7.35;2.53;;;;;;;13.32;77.74;102613.78;4741022;30;20055;-93
2022/07/10 05:18:48;;;;;;;8.77;2.30;;;;;;;13.32;76.71;102588.06;4743199;30;20059;-92
2022/07/10 05:21:14;;;;;;;9.55;2.20;;;;;;;13.49;77.31;102609.25;4730171;30;20040;-92
2022/07/10 05:26:36;;;;;;;9.77;2.17;;;;;;;13.61;77.21;102604.78;4766418;30;20054;-93
2022/07/10 05:29:06;;;;;;;9.25;2.38;;;;;;;13.64;76.94;102594.09;4765212;30;20043;-95
2022/07/10 05:31:32;;;;;;;9.15;2.22;;;;;;;13.79;77.14;102596.66;4742396;30;20044;-92
2022/07/10 05:34:00;;;;;;;8.10;2.17;;;;;;;14.04;76.73;102613.31;4742079;30;20366;-92
2022/07/10 05:36:36;;;;;;;;;;;;;;;;;;;;;
2022/07/10 05:39:11;;;;;;;15.60;2.30;;;;;;;14.26;75.67;102619.34;4756293;30;20043;-94
2022/07/10 05:41:36;;;;;;;6.55;1.90;;;;;;;14.33;75.13;102606.88;4755608;30;20036;-92
2022/07/10 05:44:22;;;;;;;8.88;1.95;;;;;;;14.43;75.15;102618.34;4736944;30;20054;-93
2022/07/10 05:46:53;;;;;;;8.75;2.33;;;;;;;14.53;75.07;102615.59;4734143;30;20047;-92
2022/07/10 05:49:18;;;;;;;12.75;2.10;;;;;;;14.59;74.49;102612.88;4740795;30;20044;-91
2022/07/10 05:51:46;;;;;;;7.03;2.00;;;;;;;14.69;74.44;102605.66;4740899;30;20027;-93
2022/07/10 05:54:12;;;;;;;10.23;2.45;;;;;;;14.88;73.31;102610.78;4740471;30;20039;-92
2022/07/10 05:56:51;;;;;;;9.82;2.22;;;;;;;14.92;72.76;102605.38;4741923;30;20063;-92
2022/07/10 05:59:29;;;;;;;;;;;;;;;;;;;;;
2022/07/10 06:02:07;;;;;;;9.88;2.47;;;;;;;15.15;72.47;102586.41;4755295;30;20071;-93
2022/07/10 06:04:51;;;;;;;12.10;2.40;;;;;;;15.32;71.90;102591.53;4741010;30;20050;-93
2022/07/10 06:07:36;;;;;;;8.43;1.75;;;;;;;15.48;71.14;102601.09;4741012;30;20054;-94
2022/07/10 06:10:35;;;;;;;6.43;1.73;;;;;;;15.67;70.90;102604.38;4708563;30;20134;-93
2022/07/10 06:13:00;;;;;;;9.07;2.08;;;;;;;15.84;69.67;102593.47;4751864;30;20044;-92
2022/07/10 06:15:28;;;;;;;6.40;1.98;;;;;;;16.00;68.48;102603.88;4725097;30;20030;-94
2022/07/10 06:17:57;;;;;;;9.18;2.20;;;;;;;16.11;67.60;102602.81;4740835;30;20051;-92
2022/07/10 06:20:26;;;;;;;15.25;2.67;;;;;;;16.00;66.80;102577.16;4739446;30;20031;-92
2022/07/10 06:22:59;;;;;;;14.18;2.55;;;;;;;16.03;66.08;102591.38;4741988;30;20482;-91
2022/07/10 06:25:55;;;;;;;13.55;2.22;;;;;;;16.13;66.31;102601.00;4738764;30;20075;-94
2022/07/10 06:29:26;;;;;;;10.50;2.42;;;;;;;16.05;67.19;102576.22;4737980;30;20090;-93
2022/07/10 06:32:12;;;;;;;11.73;2.78;;;;;;;16.29;65.63;102572.19;4667572;30;20062;-92
2022/07/10 06:34:41;;;;;;;11.98;2.50;;;;;;;16.48;65.68;102588.78;4754067;30;20044;-93
2022/07/10 06:37:19;;;;;;;10.57;2.22;;;;;;;16.63;64.65;102584.06;4739478;30;20115;-93
2022/07/10 06:40:17;;;;;;;19.65;2.58;;;;;;;16.56;64.49;102584.16;4744039;30;20551;-94
2022/07/10 06:42:45;;;;;;;9.23;2.22;;;;;;;16.59;64.16;102593.06;4752659;30;20055;-92
2022/07/10 06:45:27;;;;;;;11.60;2.20;;;;;;;16.56;64.07;102597.53;4739014;30;20494;-93
2022/07/10 06:47:59;;;;;;;4.47;1.73;;;;;;;16.56;64.92;102591.31;4734240;30;20317;-91
2022/07/10 06:50:46;;;;;;;9.18;1.90;;;;;;;16.63;64.88;102597.44;4738164;30;20105;-90
2022/07/10 06:53:27;;;;;;;6.32;1.65;;;;;;;16.72;65.42;102589.25;4743969;30;20477;-92
2022/07/10 06:56:29;;;;;;;11.20;2.08;;;;;;;16.95;64.91;102604.88;4753626;30;20044;-94
2022/07/10 06:59:32;;;;;;;14.88;2.40;;;;;;;16.93;64.03;102583.47;4751619;30;20098;-93
2022/07/10 07:06:37;;;;;;;7.30;1.70;;;;;;;17.04;64.38;102580.59;4744322;30;20044;-93
2022/07/10 07:09:43;;;;;;;10.13;2.58;;;;;;;17.10;63.76;102579.56;4697887;30;20058;-95
2022/07/10 07:12:56;;;;;;;8.90;1.92;;;;;;;17.12;63.47;102593.81;4676320;30;20061;-91
2022/07/10 07:16:10;;;;;;;;;;;;;;;;;;;;;
2022/07/10 07:18:47;;;;;;;7.57;2.20;;;;;;;17.24;62.56;102588.19;4740178;30;20044;-93
2022/07/10 07:24:46;;;;;;;;;;;;;;;;;;;;;
2022/07/10 07:27:37;;;;;;;;;;;;;;;;;;;;;
2022/07/10 07:31:22;;;;;;;;;;;;;;;;;;;;;
2022/07/10 07:34:22;;;;;;;10.18;2.35;;;;;;;17.38;63.36;102590.53;4700358;30;20506;-95
2022/07/10 07:37:12;;;;;;;10.38;2.55;;;;;;;17.61;62.87;102606.13;4750919;30;20131;-93
2022/07/10 07:43:54;;;;;;;8.23;2.53;;;;;;;17.55;62.12;102588.38;4644503;30;20078;-92
2022/07/10 07:47:13;;;;;;;10.40;2.72;;;;;;;17.58;62.55;102611.50;4655233;30;20088;-94
2022/07/10 07:53:54;;;;;;;6.72;2.35;;;;;;;17.58;62.63;102596.34;4651441;30;20059;-92
2022/07/10 07:56:27;;;;;;;14.32;2.75;;;;;;;17.51;62.28;102601.88;4636548;30;20519;-91
2022/07/10 08:09:38;;;;;;;13.88;2.67;;;;;;;17.77;62.74;102598.59;4568783;31;20430;-93
2022/07/10 08:12:08;;;;;;;11.82;2.50;;;;;;;17.75;61.78;102611.13;4584031;31;20056;-92
2022/07/10 08:14:45;;;;;;;12.10;2.63;;;;;;;17.78;62.35;102609.28;4584492;31;20065;-91
2022/07/10 08:20:53;;;;;;;13.15;2.83;;;;;;;17.76;62.53;102607.56;4629845;30;20050;-93
2022/07/10 08:23:51;;;;;;;11.07;2.63;;;;;;;17.76;62.09;102587.00;4710541;30;20041;-93
2022/07/10 08:31:04;;;;;;;8.20;2.45;;;;;;;17.87;62.68;102600.16;4691109;30;20077;-92
2022/07/10 08:39:01;;;;;;;;;;;;;;;;;;;;;
2022/07/10 08:41:40;;;;;;;8.60;2.08;;;;;;;17.89;61.93;102600.13;4616626;30;20108;-93
2022/07/10 08:48:38;;;;;;;7.75;2.47;;;;;;;17.87;62.49;102586.75;4600277;31;20052;-92
2022/07/10 08:55:28;;;;;;;6.40;2.25;;;;;;;18.15;62.39;102627.19;4620987;30;20428;-93
2022/07/10 08:58:26;;;;;;;8.10;2.13;;;;;;;18.08;61.55;102593.38;4635594;30;20090;-92
2022/07/10 11:04:03;;;;;;;4.55;1.75;;;;;;;21.76;52.33;102541.72;4641722;30;20142;-91
2022/07/10 11:15:32;;;;;;;;;;;;;;;;;;;;;
2022/07/10 12:41:25;;;;;;;6.78;1.77;;;;;;;22.69;48.44;102517.88;4843859;24;20067;-91
2022/07/10 12:45:05;;;;;;;;;;;;;;;;;;;;;
2022/07/10 12:48:44;;;;;;;5.07;1.63;;;;;;;22.38;49.56;102519.28;4732555;30;20052;-92
2022/07/10 12:55:51;;;;;;;3.22;1.20;;;;;;;22.60;48.30;102502.97;4679506;30;20042;-91
2022/07/10 12:59:27;;;;;;;8.02;1.70;;;;;;;22.54;48.41;102506.81;4640864;30;20122;-90
2022/07/10 13:02:35;;;;;;;6.80;1.50;;;;;;;22.63;48.07;102497.44;4591560;31;20060;-91
2022/07/10 13:20:55;;;;;;;3.45;1.30;;;;;;;23.25;46.38;102484.59;4754018;30;20080;-90
2022/07/10 13:31:00;;;;;;;3.13;1.10;;;;;;;23.58;46.17;102487.44;4661221;30;20484;-91
2022/07/10 13:34:00;;;;;;;3.17;1.25;;;;;;;23.80;43.33;102479.13;4649192;30;20459;-91
2022/07/10 13:40:12;;;;;;;8.52;1.73;;;;;;;24.06;45.22;102474.19;4619469;31;20078;-89
2022/07/10 13:50:22;;;;;;;3.00;1.30;;;;;;;24.69;44.46;102473.50;4606226;31;20060;-89
2022/07/10 13:52:52;;;;;;;7.10;1.45;;;;;;;24.88;43.08;102457.97;4587331;31;20056;-90
2022/07/10 13:59:49;;;;;;;3.05;1.25;;;;;;;25.04;42.11;102471.50;4611103;31;20589;-89
2022/07/10 14:02:30;;;;;;;;;;;;;;;;;;;;;
2022/07/10 14:10:30;;;;;;;6.47;1.52;;;;;;;25.59;40.41;102459.28;4654287;30;20061;-90
2022/07/10 14:16:47;;;;;;;2.90;1.10;;;;;;;25.79;40.48;102459.94;4945414;24;20475;-89
2022/07/10 14:19:20;;;;;;;3.20;1.27;;;;;;;25.58;40.75;102448.56;4755380;30;20085;-89
2022/07/10 14:25:34;;;;;;;5.88;1.52;;;;;;;25.54;40.20;102455.97;4772219;30;20503;-93
2022/07/10 14:31:48;;;;;;;;;;;;;;;;;;;;;
2022/07/10 14:42:47;;;;;;;3.80;1.55;;;;;;;25.34;40.56;102457.16;4697213;30;20494;-90
2022/07/10 14:45:42;;;;;;;4.90;1.42;;;;;;;25.23;40.03;102449.69;4732156;30;20056;-90
2022/07/10 14:48:23;;;;;;;4.88;1.75;;;;;;;25.36;41.54;102457.09;4733212;30;20045;-90
2022/07/10 14:51:16;;;;;;;3.45;1.33;;;;;;;25.45;42.39;102461.97;4732176;30;20596;-89
2022/07/10 14:53:49;;;;;;;4.85;1.58;;;;;;;25.51;40.88;102438.06;4715155;30;20087;-91
2022/07/10 14:57:33;;;;;;;;;;;;;;;;;;;;;
2022/07/10 15:08:11;;;;;;;;;;;;;;;;;;;;;
2022/07/10 15:10:50;;;;;;;4.85;1.52;;;;;;;25.22;40.96;102445.22;4688076;30;20064;-91
2022/07/10 15:13:23;;;;;;;4.72;1.50;;;;;;;25.17;40.07;102458.16;4695394;30;20086;-90
2022/07/10 15:16:31;;;;;;;3.28;1.40;;;;;;;24.96;40.25;102426.84;4694956;30;20045;-93
2022/07/10 15:19:23;;;;;;;9.05;1.45;;;;;;;24.97;40.98;102432.16;4682885;30;20136;-90
2022/07/10 15:22:40;;;;;;;4.88;1.38;;;;;;;25.31;41.01;102428.41;4679970;30;20052;-91
2022/07/10 15:25:06;;;;;;;3.83;1.40;;;;;;;25.41;39.91;102420.59;4680046;30;20050;-91
2022/07/10 15:27:55;;;;;;;3.40;1.40;;;;;;;25.41;40.24;102406.16;4662005;30;20100;-90
2022/07/10 15:30:53;;;;;;;4.30;1.65;;;;;;;25.40;40.65;102405.28;4679865;30;20128;-90
2022/07/10 15:33:53;;;;;;;4.43;1.38;;;;;;;25.49;40.04;102418.31;4679560;30;20096;-90
2022/07/10 15:36:20;;;;;;;6.00;1.27;;;;;;;25.28;39.68;102403.31;4699407;30;20052;-90
2022/07/10 15:38:50;;;;;;;3.20;1.15;;;;;;;25.43;40.05;102404.25;4717313;30;20036;-90
2022/07/10 15:41:28;;;;;;;4.50;1.30;;;;;;;25.34;39.37;102399.34;4687242;30;20147;-92
2022/07/10 15:44:35;;;;;;;3.20;1.33;;;;;;;25.18;39.72;102412.97;4711563;30;20041;-93
2022/07/10 15:47:36;;;;;;;11.20;1.58;;;;;;;25.00;39.68;102406.72;4685271;30;20529;-90
2022/07/10 15:50:06;;;;;;;3.97;1.38;;;;;;;24.68;40.33;102385.09;4634506;30;20173;-91
2022/07/10 15:52:37;;;;;;;3.45;1.48;;;;;;;24.83;40.75;102407.72;4692367;30;20182;-90
2022/07/10 15:55:44;;;;;;;3.72;1.48;;;;;;;24.91;40.95;102391.03;4708683;30;20140;-91
2022/07/10 15:58:23;;;;;;;8.50;2.20;;;;;;;24.98;40.57;102398.69;4699763;30;20044;-91
2022/07/10 16:01:16;;;;;;;;;;;;;;;25.07;40.58;102410.81;4709024;30;20052;-91
2022/07/10 16:05:05;;;;;;;;;;;;;;;;;;;;;
2022/07/10 16:08:57;;;;;;;2.72;1.20;;;;;;;25.31;40.50;102398.56;4628910;31;20050;-91
2022/07/10 16:11:29;;;;;;;5.90;1.38;;;;;;;25.84;39.21;102390.88;4628342;30;20062;-90
2022/07/10 16:14:56;;;;;;;3.05;1.30;;;;;;;25.97;39.83;102388.28;4659375;30;20101;-90
2022/07/10 16:18:42;;;;;;;4.00;1.27;;;;;;;25.89;38.96;102396.91;4695624;30;20044;-90
2022/07/10 16:21:26;;;;;;;3.78;1.48;;;;;;;25.52;39.07;102385.56;4742204;30;20043;-91
2022/07/10 16:28:49;;;;;;;6.43;1.70;;;;;;;24.91;40.82;102372.06;4714389;30;20108;-91
2022/07/10 16:31:15;;;;;;;5.50;1.40;;;;;;;25.17;42.01;102373.25;4672256;30;20120;-90
2022/07/10 16:34:10;;;;;;;;;;;;;;;;;;;;;
2022/07/10 16:41:36;;;;;;;4.43;1.67;;;;;;;26.15;40.82;102380.81;4744206;30;20504;-90
2022/07/10 16:44:20;;;;;;;5.43;2.00;;;;;;;26.45;40.26;102363.53;4741032;30;20097;-89
2022/07/10 16:46:52;;;;;;;2.38;1.40;;;;;;;26.92;38.26;102375.84;4741491;30;20046;-90
2022/07/10 16:49:39;;;;;;;5.72;1.80;;;;;;;26.67;38.61;102354.88;4740034;30;20094;-88
2022/07/10 16:52:42;;;;;;;;;;;;;;;;;;;;;
2022/07/10 16:55:40;;;;;;;4.30;1.50;;;;;;;25.90;39.33;102366.06;4755064;30;20043;-90
2022/07/10 16:58:14;;;;;;;8.27;1.80;;;;;;;25.72;40.22;102345.50;4760389;30;20031;-90
2022/07/10 17:00:46;;;;;;;4.43;1.75;;;;;;;25.87;40.12;102341.00;4756649;30;20040;-90
2022/07/10 17:03:11;;;;;;;5.75;1.75;;;;;;;25.89;39.91;102350.78;4761711;30;20143;-87
2022/07/10 17:06:36;;;;;;;6.30;1.50;;;;;;;26.04;40.51;102350.75;4762977;30;20058;-91
2022/07/10 17:09:52;;;;;;;4.22;1.70;;;;;;;26.00;41.32;102362.78;4744205;30;20055;-90
2022/07/10 17:12:26;;;;;;;6.43;1.80;;;;;;;26.48;39.93;102360.59;4743113;30;20043;-89
2022/07/10 17:15:33;;;;;;;;;;;;;;;;;;;;;
2022/07/10 17:18:22;;;;;;;4.80;1.50;;;;;;;26.33;40.45;102354.31;4766249;30;20044;-89
2022/07/10 17:20:51;;;;;;;4.50;1.52;;;;;;;26.14;39.57;102346.50;4741025;30;20135;-90
2022/07/10 17:23:36;;;;;;;;;;;;;;;;;;;;;
2022/07/10 17:29:47;;;;;;;5.00;1.63;;;;;;;26.21;39.21;102339.72;4743880;30;20173;-89
2022/07/10 17:32:25;;;;;;;5.18;1.90;;;;;;;26.00;39.05;102336.50;4737646;30;20123;-90
2022/07/10 17:34:51;;;;;;;2.90;1.30;;;;;;;25.82;40.08;102340.38;4748071;30;20078;-89
2022/07/10 17:38:15;;;;;;;;;;;;;;;;;;;;;
2022/07/10 17:41:28;;;;;;;7.15;1.98;;;;;;;25.74;40.74;102349.88;4732798;30;20439;-90
2022/07/10 17:44:21;;;;;;;5.45;1.60;;;;;;;25.56;40.04;102342.84;4743158;30;20048;-91
2022/07/10 17:46:47;;;;;;;4.18;1.60;;;;;;;25.08;40.56;102331.28;4740866;30;20047;-91
2022/07/10 17:49:57;;;;;;;3.65;1.77;;;;;;;25.06;41.29;102342.19;4739747;30;20088;-91
2022/07/10 17:53:46;;;;;;;;;;;;;;;;;;;;;
2022/07/10 18:00:24;;;;;;;5.63;1.90;;;;;;;26.20;40.79;102321.66;4754652;30;20052;-91
2022/07/10 18:06:46;;;;;;;7.60;1.90;;;;;;;28.05;38.09;102307.25;4727360;30;20052;-88
2022/07/10 18:09:45;;;;;;;5.00;1.70;;;;;;;28.56;36.32;102309.88;4729751;30;20139;-90
2022/07/10 18:12:21;;;;;;;4.03;1.60;;;;;;;28.04;36.12;102308.22;4746587;30;20059;-90
2022/07/10 18:15:31;;;;;;;;;;;;;;;;;;;;;
2022/07/10 18:18:30;;;;;;;;;;;;;;;;;;;;;
2022/07/10 18:21:56;;;;;;;4.88;1.65;;;;;;;25.65;38.80;102328.72;4758659;30;20049;-89
2022/07/10 18:25:05;;;;;;;5.60;1.65;;;;;;;25.05;39.96;102315.22;4746178;30;20097;-92
2022/07/10 18:30:50;;;;;;;;;;;;;;;;;;;;;
2022/07/10 18:37:49;;;;;;;5.93;1.73;;;;;;;23.65;43.66;102312.22;4713092;30;20048;-90
2022/07/10 18:40:56;;;;;;;;;;;;;;;;;;;;;
2022/07/10 18:44:54;;;;;;;;;;;;;;;;;;;;;
2022/07/10 18:47:45;;;;;;;3.35;1.70;;;;;;;22.80;46.12;102317.50;4769495;30;20075;-89
2022/07/10 18:50:11;;;;;;;5.57;1.80;;;;;;;22.66;46.64;102312.78;4751717;30;20114;-90
2022/07/10 18:53:11;;;;;;;5.72;1.80;;;;;;;22.61;46.93;102331.91;4744778;30;20077;-89
2022/07/10 18:55:55;;;;;;;6.10;2.13;;;;;;;22.50;47.71;102332.44;4739481;30;20398;-89
2022/07/10 18:58:48;;;;;;;4.00;1.52;;;;;;;22.30;48.41;102319.00;4756423;30;20104;-90
2022/07/10 19:04:14;;;;;;;7.68;2.17;;;;;;;22.11;49.40;102336.06;4732724;30;20044;-89
2022/07/10 19:06:53;;;;;;;7.32;1.90;;;;;;;21.93;49.44;102327.94;4739234;30;20098;-90
2022/07/10 19:09:39;;;;;;;4.25;1.95;;;;;;;21.77;49.85;102317.84;4753347;30;20040;-90
2022/07/10 19:12:36;;;;;;;6.55;2.17;;;;;;;21.78;49.66;102322.28;4770410;30;20043;-90